Time;durP1;ratioP1;P1;durP2;ratioP2;P2;SDS_P1;SDS_P2;PMS_P1;PMS_P2;Temp;Humidity;BMP_temperature;BMP_pressure;BME280_temperature;BME280_humidity;BME280_pressure;Samples;Min_cycle;Max_cycle;Signal;HPM_P1;HPM_P2
2023/11/22 00:01:27;;;;;;;11.02;6.57;;;;;;;;;;5036389;28;20047;-68
2023/11/22 00:03:52;;;;;;;9.88;5.50;;;;;;;;;;5039651;28;20025;-68
2023/11/22 00:06:20;;;;;;;11.10;6.65;;;;;;;;;;5039490;28;20036;-68
2023/11/22 00:08:46;;;;;;;8.45;6.22;;;;;;;;;;5040098;28;20032;-68
2023/11/22 00:11:14;;;;;;;12.18;6.13;;;;;;;;;;5039568;28;20021;-68
2023/11/22 00:13:39;;;;;;;12.02;5.80;;;;;;;;;;5038583;28;20083;-68
2023/11/22 00:16:05;;;;;;;9.75;5.57;;;;;;;;;;5038946;28;20017;-68
2023/11/22 00:18:30;;;;;;;10.57;6.00;;;;;;;;;;5038349;28;20487;-68
2023/11/22 00:20:57;;;;;;;12.20;5.57;;;;;;;;;;5039441;28;20033;-68
2023/11/22 00:23:27;;;;;;;10.73;5.72;;;;;;;;;;5038404;28;20036;-68
2023/11/22 00:25:52;;;;;;;12.23;5.97;;;;;;;;;;5039153;28;20033;-68
2023/11/22 00:28:17;;;;;;;12.00;5.45;;;;;;;;;;5039237;28;20030;-68
2023/11/22 00:30:43;;;;;;;11.57;6.38;;;;;;;;;;5039053;28;20059;-68
2023/11/22 00:33:09;;;;;;;8.68;5.57;;;;;;;;;;5039370;28;20033;-68
2023/11/22 00:35:34;;;;;;;10.05;5.72;;;;;;;;;;5039282;28;20017;-68
2023/11/22 00:37:59;;;;;;;11.18;6.65;;;;;;;;;;5039265;28;20087;-68
2023/11/22 00:40:25;;;;;;;13.60;6.57;;;;;;;;;;5039603;28;20497;-68
2023/11/22 00:42:50;;;;;;;10.68;6.22;;;;;;;;;;5039364;28;20025;-68
2023/11/22 00:45:15;;;;;;;13.75;6.28;;;;;;;;;;5039009;28;20025;-68
2023/11/22 00:47:40;;;;;;;8.45;6.47;;;;;;;;;;5039094;28;20037;-68
2023/11/22 00:50:07;;;;;;;12.18;6.47;;;;;;;;;;5039187;28;20024;-68
2023/11/22 00:52:32;;;;;;;11.57;6.50;;;;;;;;;;5039207;28;20147;-68
2023/11/22 00:54:58;;;;;;;13.00;6.35;;;;;;;;;;5038749;28;20065;-68
2023/11/22 00:57:23;;;;;;;13.02;6.63;;;;;;;;;;5039171;28;20047;-68
2023/11/22 00:59:49;;;;;;;9.82;6.53;;;;;;;;;;5038839;28;20036;-68
2023/11/22 01:02:15;;;;;;;18.58;7.65;;;;;;;;;;5039272;28;20040;-68
2023/11/22 01:04:40;;;;;;;15.40;6.20;;;;;;;;;;5039074;28;20040;-68
2023/11/22 01:07:06;;;;;;;10.93;6.20;;;;;;;;;;5039259;28;20029;-68
2023/11/22 01:09:32;;;;;;;14.90;6.97;;;;;;;;;;5037431;28;20079;-68
2023/11/22 01:11:57;;;;;;;14.68;8.32;;;;;;;;;;5036258;28;20025;-68
2023/11/22 01:14:23;;;;;;;11.45;5.70;;;;;;;;;;5035886;28;20470;-68
2023/11/22 01:16:49;;;;;;;10.30;5.07;;;;;;;;;;5036081;28;20414;-68
2023/11/22 01:19:14;;;;;;;11.13;6.10;;;;;;;;;;5035751;28;20028;-68
2023/11/22 01:21:39;;;;;;;13.90;6.13;;;;;;;;;;5035297;28;20551;-68
2023/11/22 01:24:05;;;;;;;9.75;5.80;;;;;;;;;;5035532;28;20034;-68
2023/11/22 01:26:30;;;;;;;15.48;6.60;;;;;;;;;;5035908;28;20032;-68
2023/11/22 01:28:55;;;;;;;14.27;7.40;;;;;;;;;;5036008;28;20025;-68
2023/11/22 01:31:21;;;;;;;11.45;5.45;;;;;;;;;;5035471;28;20025;-68
2023/11/22 01:33:47;;;;;;;10.80;5.90;;;;;;;;;;5035424;28;20375;-68
2023/11/22 01:36:13;;;;;;;15.05;6.05;;;;;;;;;;5036101;28;20033;-68
2023/11/22 01:38:39;;;;;;;11.95;4.63;;;;;;;;;;5034506;28;20390;-68
2023/11/22 01:41:04;;;;;;;10.60;5.30;;;;;;;;;;5035451;28;20498;-68
2023/11/22 01:43:31;;;;;;;11.90;8.13;;;;;;;;;;5034821;28;20049;-68
2023/11/22 01:45:56;;;;;;;10.00;6.53;;;;;;;;;;5034519;28;20040;-68
2023/11/22 01:48:21;;;;;;;9.85;5.90;;;;;;;;;;5034872;28;20470;-68
2023/11/22 01:50:47;;;;;;;12.75;5.57;;;;;;;;;;5036116;28;20033;-68
2023/11/22 01:53:16;;;;;;;8.05;5.22;;;;;;;;;;5034710;28;20087;-69
2023/11/22 01:55:42;;;;;;;11.50;5.75;;;;;;;;;;5017103;28;20028;-68
2023/11/22 01:58:07;;;;;;;9.52;6.10;;;;;;;;;;5014659;28;20038;-68
2023/11/22 02:00:36;;;;;;;9.27;4.95;;;;;;;;;;5022784;28;20017;-68
2023/11/22 02:03:02;;;;;;;9.98;6.05;;;;;;;;;;5033839;28;20029;-68
2023/11/22 02:05:27;;;;;;;12.50;6.35;;;;;;;;;;5034696;28;20025;-69
2023/11/22 02:07:52;;;;;;;10.30;5.63;;;;;;;;;;5034712;28;20025;-68
2023/11/22 02:10:18;;;;;;;8.98;5.88;;;;;;;;;;5034143;28;20095;-68
2023/11/22 02:12:43;;;;;;;13.27;6.13;;;;;;;;;;5033788;28;20494;-68
2023/11/22 02:15:09;;;;;;;13.00;6.43;;;;;;;;;;5034966;28;20029;-68
2023/11/22 02:17:34;;;;;;;10.10;5.65;;;;;;;;;;5034881;28;20128;-69
2023/11/22 02:20:00;;;;;;;12.23;6.10;;;;;;;;;;5034790;28;20029;-68
2023/11/22 02:22:25;;;;;;;11.75;6.45;;;;;;;;;;5033988;28;20026;-68
2023/11/22 02:24:50;;;;;;;9.20;5.55;;;;;;;;;;5033617;28;20013;-69
2023/11/22 02:27:16;;;;;;;13.75;5.75;;;;;;;;;;5034660;28;20028;-68
2023/11/22 02:29:41;;;;;;;16.15;6.05;;;;;;;;;;5034391;28;20022;-68
2023/11/22 02:32:06;;;;;;;10.90;5.80;;;;;;;;;;5034628;28;20096;-68
2023/11/22 02:34:32;;;;;;;13.80;6.30;;;;;;;;;;5034089;28;20033;-69
2023/11/22 02:36:57;;;;;;;10.80;6.22;;;;;;;;;;5033977;28;20021;-68
2023/11/22 02:39:28;;;;;;;12.18;6.07;;;;;;;;;;5032915;28;20028;-68
2023/11/22 02:41:53;;;;;;;13.15;5.38;;;;;;;;;;5033202;28;20483;-68
2023/11/22 02:44:19;;;;;;;10.52;5.55;;;;;;;;;;5032715;28;20029;-68
2023/11/22 02:46:44;;;;;;;7.68;4.43;;;;;;;;;;5034206;28;20036;-68
2023/11/22 02:49:09;;;;;;;9.27;5.22;;;;;;;;;;5033912;28;20048;-68
2023/11/22 02:51:35;;;;;;;11.38;6.88;;;;;;;;;;5033491;28;20029;-68
2023/11/22 02:54:00;;;;;;;12.50;6.13;;;;;;;;;;5033950;28;20432;-68
2023/11/22 02:56:25;;;;;;;13.85;6.97;;;;;;;;;;5033937;28;20018;-68
2023/11/22 02:58:51;;;;;;;13.05;7.03;;;;;;;;;;5033979;28;20026;-68
2023/11/22 03:01:16;;;;;;;11.32;6.65;;;;;;;;;;5034017;28;20351;-68
2023/11/22 03:03:41;;;;;;;12.10;7.97;;;;;;;;;;5033388;28;20026;-68
2023/11/22 03:06:07;;;;;;;17.48;6.70;;;;;;;;;;5033724;28;20494;-68
2023/11/22 03:08:33;;;;;;;12.75;5.35;;;;;;;;;;5034002;28;20394;-68
2023/11/22 03:10:58;;;;;;;13.32;6.30;;;;;;;;;;5033880;28;20402;-68
2023/11/22 03:13:23;;;;;;;11.27;6.60;;;;;;;;;;5033840;28;20509;-68
2023/11/22 03:15:49;;;;;;;16.55;7.05;;;;;;;;;;5033143;28;20032;-68
2023/11/22 03:18:16;;;;;;;12.05;6.40;;;;;;;;;;5033622;28;20033;-68
2023/11/22 03:20:43;;;;;;;13.40;7.03;;;;;;;;;;5033395;28;20018;-68
2023/11/22 03:23:10;;;;;;;14.95;7.72;;;;;;;;;;5033522;28;20030;-68
2023/11/22 03:25:35;;;;;;;17.50;6.50;;;;;;;;;;5033771;28;20398;-68
2023/11/22 03:28:01;;;;;;;14.68;7.68;;;;;;;;;;5033025;28;20025;-68
2023/11/22 03:30:26;;;;;;;11.45;5.60;;;;;;;;;;5033366;28;20029;-68
2023/11/22 03:32:51;;;;;;;11.93;5.45;;;;;;;;;;5033229;28;20029;-68
2023/11/22 03:35:17;;;;;;;13.27;5.63;;;;;;;;;;5032535;28;20033;-68
2023/11/22 03:37:42;;;;;;;12.65;6.28;;;;;;;;;;5034050;28;20075;-68
2023/11/22 03:40:09;;;;;;;13.73;5.70;;;;;;;;;;5033264;28;20425;-68
2023/11/22 03:42:36;;;;;;;13.13;6.53;;;;;;;;;;5032987;28;20442;-68
2023/11/22 03:45:02;;;;;;;13.20;6.10;;;;;;;;;;5033114;28;20025;-68
2023/11/22 03:47:27;;;;;;;14.23;6.55;;;;;;;;;;5033176;28;20027;-68
2023/11/22 03:49:52;;;;;;;14.15;7.18;;;;;;;;;;5033256;28;20475;-68
2023/11/22 03:52:18;;;;;;;15.20;5.45;;;;;;;;;;5032477;28;20483;-68
2023/11/22 03:54:43;;;;;;;13.55;5.93;;;;;;;;;;5033348;28;20029;-69
2023/11/22 03:57:09;;;;;;;13.07;6.20;;;;;;;;;;5031632;28;20044;-68
2023/11/22 03:59:35;;;;;;;12.57;6.53;;;;;;;;;;5032844;28;20025;-68
2023/11/22 04:02:00;;;;;;;12.23;6.93;;;;;;;;;;5031890;28;20021;-68
2023/11/22 04:04:25;;;;;;;12.10;7.13;;;;;;;;;;5032604;28;20052;-68
2023/11/22 04:06:50;;;;;;;15.43;6.30;;;;;;;;;;5032765;28;20034;-68
2023/11/22 04:09:19;;;;;;;14.13;7.20;;;;;;;;;;5033082;28;20483;-69
2023/11/22 04:11:45;;;;;;;15.13;5.57;;;;;;;;;;5033017;28;20398;-68
2023/11/22 04:14:11;;;;;;;13.23;5.38;;;;;;;;;;5032257;28;20441;-69
2023/11/22 04:16:37;;;;;;;14.80;6.97;;;;;;;;;;5032994;28;20026;-68
2023/11/22 04:19:02;;;;;;;14.55;7.05;;;;;;;;;;5032752;28;20025;-68
2023/11/22 04:21:27;;;;;;;15.02;6.40;;;;;;;;;;5032896;28;20029;-68
2023/11/22 04:23:52;;;;;;;12.13;5.93;;;;;;;;;;5033031;28;20108;-68
2023/11/22 04:26:20;;;;;;;13.93;6.80;;;;;;;;;;5032723;28;20030;-68
2023/11/22 04:28:45;;;;;;;14.68;7.53;;;;;;;;;;5032771;28;20024;-68
2023/11/22 04:31:10;;;;;;;12.27;6.65;;;;;;;;;;5031793;28;20025;-68
2023/11/22 04:33:36;;;;;;;16.83;6.25;;;;;;;;;;5032538;28;20505;-68
2023/11/22 04:36:01;;;;;;;13.55;6.72;;;;;;;;;;5032556;28;20032;-69
2023/11/22 04:38:27;;;;;;;17.17;8.00;;;;;;;;;;5032420;28;20061;-68
2023/11/22 04:40:52;;;;;;;12.95;7.35;;;;;;;;;;5032294;28;20048;-68
2023/11/22 04:43:18;;;;;;;13.02;7.40;;;;;;;;;;5032650;28;20041;-68
2023/11/22 04:45:43;;;;;;;15.93;7.20;;;;;;;;;;5032598;28;20043;-68
2023/11/22 04:48:09;;;;;;;14.88;7.47;;;;;;;;;;5034198;28;20075;-68
2023/11/22 04:50:34;;;;;;;13.45;6.65;;;;;;;;;;5018830;28;20036;-68
2023/11/22 04:53:01;;;;;;;15.52;6.72;;;;;;;;;;5035232;28;20021;-68
2023/11/22 04:55:26;;;;;;;15.45;8.30;;;;;;;;;;5036256;28;20061;-68
2023/11/22 04:57:52;;;;;;;11.13;7.10;;;;;;;;;;5036043;28;20084;-68
2023/11/22 05:00:18;;;;;;;13.35;6.55;;;;;;;;;;5036410;28;20645;-68
2023/11/22 05:02:43;;;;;;;11.82;7.10;;;;;;;;;;5035948;28;20029;-68
2023/11/22 05:05:11;;;;;;;19.15;7.93;;;;;;;;;;5036346;28;20025;-68
2023/11/22 05:07:37;;;;;;;12.90;6.82;;;;;;;;;;5034107;28;20029;-68
2023/11/22 05:10:04;;;;;;;12.50;7.60;;;;;;;;;;5035004;28;20117;-68
2023/11/22 05:12:29;;;;;;;12.18;7.68;;;;;;;;;;5034674;28;20036;-68
2023/11/22 05:14:54;;;;;;;17.90;8.63;;;;;;;;;;5034631;28;20021;-68
2023/11/22 05:17:20;;;;;;;13.98;8.05;;;;;;;;;;5035585;28;20057;-68
2023/11/22 05:19:45;;;;;;;15.70;7.97;;;;;;;;;;5035696;28;20075;-68
2023/11/22 05:22:10;;;;;;;13.70;7.57;;;;;;;;;;5035924;28;20021;-68
2023/11/22 05:24:38;;;;;;;12.30;7.20;;;;;;;;;;5035802;28;20029;-69
2023/11/22 05:27:04;;;;;;;15.32;8.35;;;;;;;;;;5035696;28;20029;-68
2023/11/22 05:29:29;;;;;;;15.75;7.60;;;;;;;;;;5035428;28;20123;-68
2023/11/22 05:31:54;;;;;;;13.35;6.25;;;;;;;;;;5035270;28;20029;-68
2023/11/22 05:34:19;;;;;;;17.48;7.70;;;;;;;;;;5035797;28;20033;-68
2023/11/22 05:36:45;;;;;;;13.18;7.53;;;;;;;;;;5036235;28;20041;-68
2023/11/22 05:39:11;;;;;;;16.35;7.53;;;;;;;;;;5035923;28;20493;-68
2023/11/22 05:41:37;;;;;;;15.77;7.45;;;;;;;;;;5034885;28;20075;-68
2023/11/22 05:44:02;;;;;;;12.77;7.13;;;;;;;;;;5035878;28;20033;-69
2023/11/22 05:46:28;;;;;;;16.45;7.60;;;;;;;;;;5035180;28;20035;-68
2023/11/22 05:48:54;;;;;;;10.95;6.63;;;;;;;;;;5035116;28;20021;-68
2023/11/22 05:51:20;;;;;;;12.88;6.68;;;;;;;;;;5034085;28;20561;-68
2023/11/22 05:53:45;;;;;;;14.35;6.40;;;;;;;;;;5033666;28;20112;-68
2023/11/22 05:56:11;;;;;;;12.30;6.10;;;;;;;;;;5034772;28;20021;-68
2023/11/22 05:58:38;;;;;;;18.20;6.03;;;;;;;;;;5034573;28;20030;-68
2023/11/22 06:01:06;;;;;;;14.95;7.38;;;;;;;;;;5033909;28;20021;-68
2023/11/22 06:03:32;;;;;;;12.77;6.38;;;;;;;;;;5034405;28;20021;-68
2023/11/22 06:05:57;;;;;;;12.98;6.47;;;;;;;;;;5034916;28;20028;-68
2023/11/22 06:08:23;;;;;;;14.82;6.93;;;;;;;;;;5035083;28;20017;-68
2023/11/22 06:10:48;;;;;;;13.38;6.90;;;;;;;;;;5034687;28;20065;-68
2023/11/22 06:13:14;;;;;;;11.48;6.75;;;;;;;;;;5034148;28;20116;-68
2023/11/22 06:15:40;;;;;;;16.65;7.95;;;;;;;;;;5035123;28;20100;-68
2023/11/22 06:18:05;;;;;;;13.45;6.35;;;;;;;;;;5034608;28;20091;-68
2023/11/22 06:20:30;;;;;;;12.90;7.60;;;;;;;;;;5034900;28;20017;-68
2023/11/22 06:22:56;;;;;;;16.05;6.88;;;;;;;;;;5034997;28;20449;-68
2023/11/22 06:25:21;;;;;;;18.63;8.10;;;;;;;;;;5034033;28;20024;-68
2023/11/22 06:27:46;;;;;;;12.73;6.85;;;;;;;;;;5034761;28;20421;-68
2023/11/22 06:30:12;;;;;;;14.55;6.90;;;;;;;;;;5032791;28;20470;-68
2023/11/22 06:32:37;;;;;;;14.52;7.38;;;;;;;;;;5021384;28;20100;-68
2023/11/22 06:35:03;;;;;;;12.52;6.72;;;;;;;;;;5014418;28;20056;-68
2023/11/22 06:37:28;;;;;;;16.20;6.43;;;;;;;;;;5024858;28;20136;-68
2023/11/22 06:39:53;;;;;;;23.75;6.85;;;;;;;;;;5034186;28;20029;-68
2023/11/22 06:42:22;;;;;;;12.18;6.72;;;;;;;;;;5033077;28;20033;-68
2023/11/22 06:44:52;;;;;;;13.25;7.38;;;;;;;;;;5032936;28;20017;-69
2023/11/22 06:47:18;;;;;;;12.20;6.65;;;;;;;;;;5034110;28;20538;-68
2023/11/22 06:49:43;;;;;;;14.80;7.32;;;;;;;;;;5032837;28;20100;-68
2023/11/22 06:52:09;;;;;;;17.52;6.97;;;;;;;;;;5033929;28;20104;-68
2023/11/22 06:54:35;;;;;;;12.98;7.20;;;;;;;;;;5023372;28;20540;-69
2023/11/22 06:57:00;;;;;;;16.10;7.35;;;;;;;;;;5014160;28;20022;-68
2023/11/22 06:59:25;;;;;;;14.93;6.80;;;;;;;;;;5021574;28;20502;-69
2023/11/22 07:01:51;;;;;;;11.93;6.95;;;;;;;;;;5014280;28;20029;-69
2023/11/22 07:04:16;;;;;;;17.00;7.88;;;;;;;;;;5014587;28;20022;-69
2023/11/22 07:06:43;;;;;;;13.30;7.00;;;;;;;;;;5032409;28;20036;-68
2023/11/22 07:09:13;;;;;;;15.07;8.15;;;;;;;;;;5033394;28;20022;-68
2023/11/22 07:11:38;;;;;;;13.85;8.25;;;;;;;;;;5026609;28;20042;-68
2023/11/22 07:14:04;;;;;;;14.90;8.18;;;;;;;;;;5013489;28;20026;-68
2023/11/22 07:16:30;;;;;;;15.02;7.68;;;;;;;;;;5013779;28;20038;-68
2023/11/22 07:18:56;;;;;;;13.38;5.63;;;;;;;;;;5033027;28;20018;-68
2023/11/22 07:21:21;;;;;;;18.67;7.70;;;;;;;;;;5032279;28;20031;-68
2023/11/22 07:23:47;;;;;;;20.75;7.45;;;;;;;;;;5026628;28;20033;-68
2023/11/22 07:26:14;;;;;;;12.95;6.47;;;;;;;;;;5031710;28;20029;-69
2023/11/22 07:28:39;;;;;;;11.43;6.35;;;;;;;;;;5033235;28;20025;-69
2023/11/22 07:31:07;;;;;;;9.32;6.32;;;;;;;;;;5017213;28;20061;-68
2023/11/22 07:33:32;;;;;;;16.23;6.93;;;;;;;;;;5013147;28;20026;-69
2023/11/22 07:35:58;;;;;;;9.70;6.07;;;;;;;;;;5021662;28;20084;-69
2023/11/22 07:38:24;;;;;;;14.07;7.03;;;;;;;;;;5013510;28;20053;-69
2023/11/22 07:40:50;;;;;;;13.25;8.10;;;;;;;;;;5013638;28;20047;-68
2023/11/22 07:43:15;;;;;;;15.27;6.45;;;;;;;;;;5032413;28;20108;-69
2023/11/22 07:45:41;;;;;;;16.70;6.25;;;;;;;;;;5033104;28;20523;-69
2023/11/22 07:48:06;;;;;;;15.63;6.72;;;;;;;;;;5029088;28;20025;-69
2023/11/22 07:50:32;;;;;;;16.08;5.95;;;;;;;;;;5032513;28;20471;-69
2023/11/22 07:52:57;;;;;;;9.35;5.72;;;;;;;;;;5033224;28;20136;-68
2023/11/22 07:55:23;;;;;;;10.32;6.28;;;;;;;;;;5031614;28;20052;-68
2023/11/22 07:57:50;;;;;;;10.25;5.70;;;;;;;;;;5033021;28;20479;-68
2023/11/22 08:00:19;;;;;;;14.27;7.15;;;;;;;;;;5032542;28;20522;-68
2023/11/22 08:02:45;;;;;;;10.57;5.22;;;;;;;;;;5032783;28;20163;-68
2023/11/22 08:05:12;;;;;;;13.60;6.50;;;;;;;;;;5032149;28;20486;-68
2023/11/22 08:07:39;;;;;;;11.45;5.75;;;;;;;;;;5032444;28;20495;-68
2023/11/22 08:10:09;;;;;;;15.57;6.43;;;;;;;;;;5023404;28;20092;-68
2023/11/22 08:12:37;;;;;;;14.65;6.25;;;;;;;;;;5013504;28;20080;-69
2023/11/22 08:15:03;;;;;;;12.77;6.18;;;;;;;;;;5011202;28;20033;-68
2023/11/22 08:17:29;;;;;;;9.38;6.05;;;;;;;;;;5015719;28;20057;-69
2023/11/22 08:19:54;;;;;;;15.75;6.40;;;;;;;;;;5012990;28;20029;-69
2023/11/22 08:22:21;;;;;;;8.68;5.57;;;;;;;;;;5024843;28;20033;-69
2023/11/22 08:24:46;;;;;;;10.75;5.20;;;;;;;;;;5023380;28;20417;-69
2023/11/22 08:27:15;;;;;;;12.65;5.57;;;;;;;;;;5036638;28;20048;-69
2023/11/22 08:29:40;;;;;;;16.25;6.13;;;;;;;;;;5036629;28;20032;-69
2023/11/22 08:32:06;;;;;;;10.18;4.78;;;;;;;;;;5036750;28;20430;-70
2023/11/22 08:34:31;;;;;;;9.82;5.53;;;;;;;;;;5035717;28;20481;-69
2023/11/22 08:36:57;;;;;;;11.15;5.57;;;;;;;;;;5031132;28;20030;-69
2023/11/22 08:39:22;;;;;;;9.70;5.70;;;;;;;;;;5016893;28;20022;-69
2023/11/22 08:41:49;;;;;;;10.85;6.30;;;;;;;;;;5018177;28;20029;-68
2023/11/22 08:44:14;;;;;;;11.05;5.70;;;;;;;;;;5036504;28;20025;-69
2023/11/22 08:46:40;;;;;;;8.85;4.97;;;;;;;;;;5036306;28;20025;-68
2023/11/22 08:49:06;;;;;;;8.45;5.20;;;;;;;;;;5036420;28;20029;-68
2023/11/22 08:51:33;;;;;;;7.82;4.95;;;;;;;;;;5036449;28;20021;-69
2023/11/22 08:53:59;;;;;;;11.93;6.70;;;;;;;;;;5035604;28;20025;-68
2023/11/22 08:56:24;;;;;;;11.30;5.40;;;;;;;;;;5033183;28;20112;-68
2023/11/22 08:58:49;;;;;;;10.43;5.28;;;;;;;;;;5027606;28;20441;-68
2023/11/22 09:01:15;;;;;;;10.77;6.72;;;;;;;;;;5029844;28;20033;-68
2023/11/22 09:03:40;;;;;;;12.80;5.80;;;;;;;;;;5033789;28;20056;-69
2023/11/22 09:06:07;;;;;;;9.18;5.32;;;;;;;;;;5022440;28;20111;-69
2023/11/22 09:08:32;;;;;;;9.02;4.88;;;;;;;;;;5015867;28;20109;-68
2023/11/22 09:10:57;;;;;;;9.60;5.95;;;;;;;;;;5026200;28;20053;-69
2023/11/22 09:13:24;;;;;;;8.98;6.05;;;;;;;;;;5036024;28;20080;-68
2023/11/22 09:15:49;;;;;;;7.75;5.90;;;;;;;;;;5035843;28;20108;-68
2023/11/22 09:18:15;;;;;;;9.70;5.75;;;;;;;;;;5035914;28;20049;-68
2023/11/22 09:20:44;;;;;;;8.07;5.00;;;;;;;;;;5035378;28;20028;-69
2023/11/22 09:23:09;;;;;;;8.00;4.97;;;;;;;;;;5036867;28;20475;-69
2023/11/22 09:25:35;;;;;;;7.30;4.47;;;;;;;;;;5036527;28;20033;-69
2023/11/22 09:28:01;;;;;;;9.10;5.28;;;;;;;;;;5037546;28;20017;-69
2023/11/22 09:30:42;;;;;;;9.80;5.43;;;;;;;;;;5034758;28;20043;-69
2023/11/22 09:33:10;;;;;;;10.85;4.70;;;;;;;;;;5033375;28;20032;-69
2023/11/22 09:35:36;;;;;;;9.25;5.22;;;;;;;;;;5035956;28;20021;-69
2023/11/22 09:38:02;;;;;;;9.73;5.35;;;;;;;;;;5035625;28;20024;-69
2023/11/22 09:40:35;;;;;;;7.32;5.13;;;;;;;;;;5024397;28;20121;-69
2023/11/22 09:43:02;;;;;;;12.40;5.85;;;;;;;;;;5028499;28;20487;-69
2023/11/22 09:45:29;;;;;;;9.02;5.50;;;;;;;;;;5020133;28;20029;-69
2023/11/22 09:47:55;;;;;;;11.48;5.20;;;;;;;;;;5034294;28;20017;-69
2023/11/22 09:50:29;;;;;;;8.05;4.65;;;;;;;;;;5034905;28;20486;-69
2023/11/22 09:52:55;;;;;;;7.30;5.00;;;;;;;;;;5034129;28;20028;-70
2023/11/22 09:55:28;;;;;;;8.70;4.85;;;;;;;;;;5035214;28;20041;-69
2023/11/22 09:57:53;;;;;;;7.78;4.57;;;;;;;;;;5035373;28;20104;-69
2023/11/22 10:00:21;;;;;;;8.75;5.05;;;;;;;;;;5035023;28;20156;-69
2023/11/22 10:02:47;;;;;;;7.63;3.63;;;;;;;;;;5035204;28;20470;-69
2023/11/22 10:05:12;;;;;;;9.10;4.88;;;;;;;;;;5034569;28;20096;-69
2023/11/22 10:07:38;;;;;;;10.55;5.38;;;;;;;;;;5034087;28;20037;-70
2023/11/22 10:10:05;;;;;;;9.10;4.95;;;;;;;;;;5035356;28;20025;-70
2023/11/22 10:12:31;;;;;;;6.88;5.00;;;;;;;;;;5034515;28;20490;-69
2023/11/22 10:15:10;;;;;;;7.18;4.85;;;;;;;;;;5035044;28;20034;-70
2023/11/22 10:17:35;;;;;;;8.10;4.80;;;;;;;;;;5017232;28;20044;-70
2023/11/22 10:20:01;;;;;;;10.18;3.38;;;;;;;;;;5034836;28;20436;-70
2023/11/22 10:22:27;;;;;;;8.00;5.05;;;;;;;;;;5035152;28;20060;-70
2023/11/22 10:24:55;;;;;;;11.48;5.75;;;;;;;;;;5030376;28;20021;-70
2023/11/22 10:27:20;;;;;;;6.50;4.88;;;;;;;;;;5013751;28;20030;-70
2023/11/22 10:29:47;;;;;;;10.18;5.07;;;;;;;;;;5017783;28;20041;-70
2023/11/22 10:32:12;;;;;;;12.38;5.60;;;;;;;;;;5030644;28;20056;-70
2023/11/22 10:34:37;;;;;;;9.73;5.03;;;;;;;;;;5034321;28;20029;-70
2023/11/22 10:37:04;;;;;;;7.85;4.90;;;;;;;;;;5026004;28;20030;-70
2023/11/22 10:39:29;;;;;;;11.15;5.10;;;;;;;;;;5013032;28;20123;-70
2023/11/22 10:41:54;;;;;;;7.30;5.03;;;;;;;;;;5015955;28;20021;-69
2023/11/22 10:44:21;;;;;;;10.30;5.22;;;;;;;;;;5016129;28;20030;-69
2023/11/22 10:46:47;;;;;;;10.48;4.22;;;;;;;;;;5013180;28;20029;-69
2023/11/22 10:49:12;;;;;;;7.72;4.68;;;;;;;;;;5028243;28;20021;-69
2023/11/22 10:51:41;;;;;;;9.95;4.75;;;;;;;;;;5033927;28;20530;-69
2023/11/22 10:54:07;;;;;;;8.60;5.07;;;;;;;;;;5034225;28;20106;-69
2023/11/22 10:56:41;;;;;;;4.53;4.13;;;;;;;;;;5032725;28;20030;-69
2023/11/22 10:59:12;;;;;;;7.65;4.68;;;;;;;;;;5017568;28;20087;-69
2023/11/22 11:01:38;;;;;;;8.27;4.25;;;;;;;;;;5034101;28;20029;-69
2023/11/22 11:04:17;;;;;;;7.18;4.40;;;;;;;;;;5033519;28;20022;-69
2023/11/22 11:06:44;;;;;;;9.90;4.25;;;;;;;;;;5022125;28;20038;-69
2023/11/22 11:09:11;;;;;;;11.52;4.35;;;;;;;;;;5013021;28;20030;-70
2023/11/22 11:11:37;;;;;;;9.43;4.97;;;;;;;;;;5022773;28;20494;-69
2023/11/22 11:14:05;;;;;;;11.48;4.85;;;;;;;;;;5034009;28;20075;-69
2023/11/22 11:16:33;;;;;;;7.32;3.40;;;;;;;;;;5032034;28;20054;-69
2023/11/22 11:18:59;;;;;;;10.52;4.55;;;;;;;;;;5040709;28;20064;-69
2023/11/22 11:21:25;;;;;;;9.13;4.38;;;;;;;;;;5019227;28;20026;-70
2023/11/22 11:23:52;;;;;;;13.68;5.13;;;;;;;;;;5028861;28;20029;-69
2023/11/22 11:26:21;;;;;;;7.75;4.78;;;;;;;;;;5031327;28;20479;-69
2023/11/22 11:28:48;;;;;;;7.85;4.93;;;;;;;;;;5023119;28;20048;-69
2023/11/22 11:31:14;;;;;;;9.15;4.57;;;;;;;;;;5028111;28;20029;-69
2023/11/22 11:33:49;;;;;;;8.68;5.00;;;;;;;;;;5026354;28;20094;-69
2023/11/22 11:36:31;;;;;;;8.32;4.97;;;;;;;;;;5026901;28;20084;-70
2023/11/22 11:39:00;;;;;;;6.35;4.50;;;;;;;;;;5024532;28;20116;-68
2023/11/22 11:41:27;;;;;;;6.75;3.72;;;;;;;;;;5029328;28;20418;-69
2023/11/22 11:43:53;;;;;;;8.20;4.15;;;;;;;;;;5025457;28;20026;-69
2023/11/22 11:46:18;;;;;;;5.38;3.95;;;;;;;;;;5029995;28;20090;-69
2023/11/22 11:48:44;;;;;;;6.95;4.50;;;;;;;;;;5029338;28;20031;-69
2023/11/22 11:51:13;;;;;;;7.40;3.95;;;;;;;;;;5031649;28;20032;-69
2023/11/22 11:53:39;;;;;;;6.68;3.50;;;;;;;;;;5024084;28;20404;-69
2023/11/22 11:56:04;;;;;;;7.63;3.33;;;;;;;;;;5031750;28;20056;-69
2023/11/22 11:58:30;;;;;;;5.20;3.90;;;;;;;;;;5026173;28;20051;-69
2023/11/22 12:00:55;;;;;;;5.03;3.15;;;;;;;;;;5028207;28;20021;-70
2023/11/22 12:03:21;;;;;;;11.55;4.57;;;;;;;;;;5032665;28;20505;-70
2023/11/22 12:05:47;;;;;;;7.18;3.53;;;;;;;;;;5027970;28;20032;-69
2023/11/22 12:08:15;;;;;;;7.63;3.88;;;;;;;;;;5028237;28;20080;-69
2023/11/22 12:10:41;;;;;;;8.30;3.95;;;;;;;;;;5033361;28;20052;-69
2023/11/22 12:13:07;;;;;;;6.57;4.25;;;;;;;;;;5032872;28;20022;-70
2023/11/22 12:15:34;;;;;;;10.50;4.30;;;;;;;;;;5032918;28;20040;-69
2023/11/22 12:18:00;;;;;;;7.20;3.75;;;;;;;;;;5031876;28;20029;-69
2023/11/22 12:20:31;;;;;;;6.57;4.75;;;;;;;;;;5031029;28;20026;-71
2023/11/22 12:23:02;;;;;;;5.90;3.78;;;;;;;;;;5032080;28;20021;-70
2023/11/22 12:25:28;;;;;;;6.40;3.80;;;;;;;;;;5032536;28;20048;-70
2023/11/22 12:27:56;;;;;;;9.40;3.97;;;;;;;;;;5031876;28;20025;-70
2023/11/22 12:30:32;;;;;;;6.68;4.18;;;;;;;;;;5031221;28;20505;-70
2023/11/22 12:33:02;;;;;;;6.03;2.85;;;;;;;;;;5032620;28;20560;-69
2023/11/22 12:35:28;;;;;;;7.65;4.47;;;;;;;;;;5031942;28;20044;-70
2023/11/22 12:37:54;;;;;;;7.20;4.65;;;;;;;;;;5031563;28;20033;-70
2023/11/22 12:40:20;;;;;;;8.27;4.13;;;;;;;;;;5033212;28;20028;-70
2023/11/22 12:42:50;;;;;;;7.70;4.47;;;;;;;;;;5031236;28;20038;-70
2023/11/22 12:45:23;;;;;;;9.15;4.10;;;;;;;;;;5031983;28;20440;-70
2023/11/22 12:47:52;;;;;;;4.93;3.78;;;;;;;;;;5030795;28;20120;-70
2023/11/22 12:50:31;;;;;;;5.70;3.05;;;;;;;;;;5030952;28;20029;-70
2023/11/22 12:52:56;;;;;;;5.85;2.92;;;;;;;;;;5032676;28;20036;-70
2023/11/22 12:55:21;;;;;;;9.50;3.78;;;;;;;;;;5036645;28;20100;-70
2023/11/22 12:58:00;;;;;;;10.18;3.85;;;;;;;;;;5032663;28;20100;-70
2023/11/22 13:00:27;;;;;;;5.00;4.47;;;;;;;;;;5032962;28;20049;-70
2023/11/22 13:02:54;;;;;;;8.98;4.55;;;;;;;;;;5024426;28;20029;-70
2023/11/22 13:05:21;;;;;;;8.18;4.60;;;;;;;;;;5030295;28;20033;-70
2023/11/22 13:07:46;;;;;;;7.63;4.38;;;;;;;;;;5026672;28;20028;-70
2023/11/22 13:10:12;;;;;;;9.02;5.05;;;;;;;;;;5036551;28;20097;-70
2023/11/22 13:12:37;;;;;;;6.43;3.70;;;;;;;;;;5036406;28;20430;-70
2023/11/22 13:15:04;;;;;;;10.05;5.22;;;;;;;;;;5020376;28;20034;-70
2023/11/22 13:17:29;;;;;;;9.70;4.53;;;;;;;;;;5016952;28;20029;-70
2023/11/22 13:19:54;;;;;;;7.88;4.85;;;;;;;;;;5022468;28;20052;-69
2023/11/22 13:22:20;;;;;;;11.15;5.07;;;;;;;;;;5036768;28;20060;-69
2023/11/22 13:24:46;;;;;;;8.80;4.30;;;;;;;;;;5035562;28;20068;-69
2023/11/22 13:27:11;;;;;;;5.05;3.58;;;;;;;;;;5035901;28;20025;-69
2023/11/22 13:29:37;;;;;;;5.35;3.70;;;;;;;;;;5035759;28;20478;-69
2023/11/22 13:32:02;;;;;;;6.85;3.65;;;;;;;;;;5035357;28;20021;-69
2023/11/22 13:34:28;;;;;;;6.72;3.30;;;;;;;;;;5035625;28;20041;-69
2023/11/22 13:36:55;;;;;;;6.28;3.53;;;;;;;;;;5035658;28;20032;-69
2023/11/22 13:39:20;;;;;;;6.45;4.35;;;;;;;;;;5034665;28;20065;-69
2023/11/22 13:41:45;;;;;;;5.45;3.83;;;;;;;;;;5035204;28;20049;-70
2023/11/22 13:44:11;;;;;;;5.15;3.00;;;;;;;;;;5035312;28;20408;-70
2023/11/22 13:46:36;;;;;;;3.95;2.15;;;;;;;;;;5020316;28;20444;-70
2023/11/22 13:49:01;;;;;;;4.32;3.22;;;;;;;;;;5015553;28;20022;-70
2023/11/22 13:51:27;;;;;;;4.70;2.13;;;;;;;;;;5031640;28;20518;-70
2023/11/22 13:53:53;;;;;;;7.97;3.88;;;;;;;;;;5035283;28;20497;-70
2023/11/22 13:56:19;;;;;;;6.13;4.15;;;;;;;;;;5035083;28;20025;-70
2023/11/22 13:58:44;;;;;;;3.33;2.28;;;;;;;;;;5035038;28;20363;-70
2023/11/22 14:01:15;;;;;;;5.15;3.60;;;;;;;;;;5034699;28;20037;-70
2023/11/22 14:03:40;;;;;;;5.75;3.63;;;;;;;;;;5035126;28;20025;-70
2023/11/22 14:06:05;;;;;;;6.38;3.30;;;;;;;;;;5035142;28;20025;-70
2023/11/22 14:08:31;;;;;;;14.18;3.20;;;;;;;;;;5023640;28;20037;-69
2023/11/22 14:10:56;;;;;;;5.25;2.67;;;;;;;;;;5024283;28;20029;-69
2023/11/22 14:13:22;;;;;;;7.15;3.67;;;;;;;;;;5031403;28;20052;-69
2023/11/22 14:15:47;;;;;;;9.13;3.40;;;;;;;;;;5028529;28;20085;-69
2023/11/22 14:18:12;;;;;;;6.72;4.10;;;;;;;;;;5031062;28;20075;-69
2023/11/22 14:20:38;;;;;;;6.18;3.78;;;;;;;;;;5025906;28;20550;-71
2023/11/22 14:23:03;;;;;;;7.72;3.33;;;;;;;;;;5025401;28;20037;-69
2023/11/22 14:25:29;;;;;;;10.50;4.47;;;;;;;;;;5027811;28;20112;-68
2023/11/22 14:27:56;;;;;;;5.65;3.40;;;;;;;;;;5028402;28;20053;-70
2023/11/22 14:30:21;;;;;;;8.68;3.78;;;;;;;;;;5031402;28;20053;-71